Martha's Vineyard, MA

9:33 AM EST on December 28, 2014 (GMT -0500)
Flying skunk farm | Change Station
CLOSE
Current Station
Personal Weather Station
Location: west tisbury, MA
Elevation: 81 ft
Nearby Weather Stations

Elev 81 ft 41.41 °N, 70.63 °W | Updated 55 seconds ago

Overcast
Overcast
52.1 °F
Feels Like 52.1 °F
N
11.0
Wind Variable Wind from SW
Gusts 24.0 mph

Today
High -- | Low -- °F
--% Chance of Precip.
Yesterday
High -- | Low -- °F
Precip. -- in
7:07 AM 4:20 PM
Waxing Crescent, 48% visible
Pressure 29.88 in
Visibility 10.0 miles
Clouds Overcast 7000 ft
Dew Point 46 °F
Humidity 81%
Rainfall 0.00 in
Snow Depth Not available.
UV 0.0 out of 12
Pollen .10 out of 12
Air Quality Not available.
Flu Activity Not available.
METAR KMVY 281353Z 23014G19KT 10SM OVC070 11/08 A2988 RMK AO2 SLP117 T01110078

More Conditions Fewer Conditions

Pressure 29.88 in
Visibility 10.0 miles
Clouds Overcast 7000 ft
Dew Point 46 °F
Humidity 81%
Rainfall 0.00 in
Snow Depth Not available.
UV 0.0 out of 12
Pollen .10 out of 12
Air Quality Not available.
Flu Activity Not available.
METAR KMVY 281353Z 23014G19KT 10SM OVC070 11/08 A2988 RMK AO2 SLP117 T01110078

More Conditions Fewer Conditions

10-Day Weather Forecast

Almanac

Astronomy

Dec. 28, 2014 Rise Set
Actual Time
Civil Twilight
Nautical Twilight
Astronomical Twilight
Moon
Length of Visible Light
Length of Day
Tomorrow will be .
, % of the Moon is Illuminated

Today's Extremes

State Highs State Lows

Community

WunderPhotos

Upload Photos

1,781,273 photos uploaded!

WunderBlogs® & News

Nearby

Air Quality

  Air Quality AQ Index Pollutant
Not available.

Snow Depth

Station Depth Elevation

Earthquake Activity

City Distance Mag. Time & Date
Minimum magnitude displayed is 2.5.

Coastal Water Temperatures

Place Temperature

Nearby Weather Stations